createdAt,value
2022-12-02T00:00:29.201Z,0
2022-12-02T00:01:29.834Z,0
2022-12-02T00:02:31.457Z,0
2022-12-02T00:03:32.243Z,0
2022-12-02T00:04:32.642Z,0
2022-12-02T00:05:32.569Z,0
2022-12-02T00:06:32.794Z,0
2022-12-02T00:07:33.072Z,0
2022-12-02T00:08:32.733Z,0
2022-12-02T00:09:33.325Z,0
2022-12-02T00:10:33.960Z,0
2022-12-02T00:11:35.146Z,0
2022-12-02T00:12:35.069Z,0
2022-12-02T00:13:36.003Z,0
2022-12-02T00:14:36.623Z,0
2022-12-02T00:15:37.812Z,0
2022-12-02T00:16:37.782Z,0
2022-12-02T00:17:38.737Z,0
2022-12-02T00:18:39.013Z,0
2022-12-02T00:19:38.919Z,0
2022-12-02T00:20:40.124Z,0
2022-12-02T00:21:40.799Z,0
2022-12-02T00:22:41.128Z,0
2022-12-02T00:23:43.043Z,0
2022-12-02T00:24:44.251Z,0
2022-12-02T00:25:43.871Z,0
2022-12-02T00:26:45.180Z,0
2022-12-02T00:27:45.104Z,0
2022-12-02T00:28:45.854Z,0
2022-12-02T00:29:46.470Z,0
2022-12-02T00:30:47.431Z,0
2022-12-02T00:31:47.660Z,0
2022-12-02T00:32:47.885Z,0
2022-12-02T00:33:48.498Z,0
2022-12-02T00:34:49.404Z,0
2022-12-02T00:35:51.073Z,0
2022-12-02T00:36:51.004Z,0
2022-12-02T00:37:52.191Z,0
2022-12-02T00:38:53.515Z,0
2022-12-02T00:39:53.420Z,0
2022-12-02T00:40:54.620Z,0
2022-12-02T00:41:54.799Z,0
2022-12-02T00:42:55.424Z,0
2022-12-02T00:43:56.071Z,0
2022-12-02T00:44:57.209Z,0
2022-12-02T00:45:57.424Z,0
2022-12-02T00:46:58.089Z,0
2022-12-02T00:47:59.007Z,0
2022-12-02T00:48:59.736Z,0
2022-12-02T00:49:59.771Z,0
2022-12-02T00:51:01.702Z,0
2022-12-02T00:52:02.377Z,0
2022-12-02T00:53:02.969Z,0
2022-12-02T00:54:03.600Z,0
2022-12-02T00:55:04.879Z,0
2022-12-02T00:56:05.809Z,0
2022-12-02T00:57:05.720Z,0
2022-12-02T00:58:06.631Z,0
2022-12-02T00:59:07.393Z,0
2022-12-02T01:00:08.590Z,0
2022-12-02T01:01:09.645Z,0
2022-12-02T01:02:10.250Z,0
2022-12-02T01:03:10.151Z,0
2022-12-02T01:04:11.078Z,0
2022-12-02T01:05:11.268Z,0
2022-12-02T01:06:10.903Z,0
2022-12-02T01:07:12.158Z,0
2022-12-02T01:08:12.871Z,0
2022-12-02T01:09:12.904Z,0
2022-12-02T01:10:14.097Z,0
2022-12-02T01:11:13.985Z,0
2022-12-02T01:12:14.600Z,0
2022-12-02T01:13:16.110Z,0
2022-12-02T01:14:16.316Z,0
2022-12-02T01:15:16.515Z,0
2022-12-02T01:16:17.818Z,0
2022-12-02T01:17:17.757Z,0
2022-12-02T01:18:19.249Z,0
2022-12-02T01:19:19.248Z,0
2022-12-02T01:20:19.169Z,0
2022-12-02T01:21:20.388Z,0
2022-12-02T01:22:20.610Z,0
2022-12-02T01:23:20.498Z,0
2022-12-02T01:24:21.426Z,0
2022-12-02T01:25:22.620Z,0
2022-12-02T01:26:22.516Z,0
2022-12-02T01:27:23.530Z,0
2022-12-02T01:28:24.725Z,0
2022-12-02T01:29:25.052Z,0
2022-12-02T01:30:25.536Z,0
2022-12-02T01:31:25.662Z,0
2022-12-02T01:32:26.103Z,0
2022-12-02T01:33:26.309Z,0
2022-12-02T01:34:25.931Z,0
2022-12-02T01:35:26.844Z,0
2022-12-02T01:36:27.832Z,0
2022-12-02T01:37:28.057Z,0
2022-12-02T01:38:27.956Z,0
2022-12-02T01:39:29.528Z,0
2022-12-02T01:40:29.159Z,0
2022-12-02T01:41:30.346Z,0
2022-12-02T01:42:30.559Z,0
2022-12-02T01:43:30.458Z,0
2022-12-02T01:44:31.677Z,0
2022-12-02T01:45:32.433Z,0
2022-12-02T01:46:33.779Z,0
2022-12-02T01:47:33.687Z,0
2022-12-02T01:48:34.331Z,0
2022-12-02T01:49:35.624Z,0
2022-12-02T01:50:35.540Z,0
2022-12-02T01:51:35.747Z,0
2022-12-02T01:52:36.720Z,0
2022-12-02T01:53:36.900Z,0
2022-12-02T01:54:36.810Z,0
2022-12-02T01:55:37.720Z,0
2022-12-02T01:56:38.332Z,0
2022-12-02T01:57:38.377Z,0
2022-12-02T01:58:39.871Z,0
2022-12-02T01:59:40.178Z,0
2022-12-02T02:00:39.814Z,0
2022-12-02T02:01:41.562Z,0
2022-12-02T02:02:41.577Z,0
2022-12-02T02:03:41.932Z,0
2022-12-02T02:04:42.864Z,0
2022-12-02T02:05:43.360Z,0
2022-12-02T02:06:43.561Z,0
2022-12-02T02:07:43.645Z,0
2022-12-02T02:08:44.883Z,0
2022-12-02T02:09:45.876Z,0
2022-12-02T02:10:46.218Z,0
2022-12-02T02:11:46.827Z,0
2022-12-02T02:12:47.717Z,0
2022-12-02T02:13:48.623Z,0
2022-12-02T02:14:49.781Z,0
2022-12-02T02:15:49.829Z,0
2022-12-02T02:16:51.237Z,0
2022-12-02T02:17:51.450Z,0
2022-12-02T02:18:51.361Z,0
2022-12-02T02:19:52.656Z,0
2022-12-02T02:20:52.275Z,0
2022-12-02T02:21:53.509Z,0
2022-12-02T02:22:54.646Z,0
2022-12-02T02:23:54.842Z,0
2022-12-02T02:24:56.676Z,0
2022-12-02T02:25:55.584Z,0
2022-12-02T02:26:56.488Z,0
2022-12-02T02:27:56.826Z,0
2022-12-02T02:28:58.233Z,0
2022-12-02T02:29:58.703Z,0
2022-12-02T02:31:00.138Z,0
2022-12-02T02:32:00.419Z,0
2022-12-02T02:33:01.054Z,0
2022-12-02T02:34:01.642Z,0
2022-12-02T02:35:03.487Z,0
2022-12-02T02:36:03.702Z,0
2022-12-02T02:37:03.903Z,0
2022-12-02T02:38:04.571Z,0
2022-12-02T02:39:05.759Z,0
2022-12-02T02:40:06.032Z,0
2022-12-02T02:41:05.934Z,0
2022-12-02T02:42:06.860Z,0
2022-12-02T02:43:07.191Z,0
2022-12-02T02:44:08.108Z,0
2022-12-02T02:45:09.380Z,0
2022-12-02T02:46:09.375Z,0
2022-12-02T02:47:10.669Z,0
2022-12-02T02:48:10.285Z,0
2022-12-02T02:49:11.200Z,0
2022-12-02T02:50:11.362Z,0
2022-12-02T02:51:12.568Z,0
2022-12-02T02:52:12.494Z,0
2022-12-02T02:53:13.472Z,0
2022-12-02T02:54:14.944Z,0
2022-12-02T02:55:14.855Z,0
2022-12-02T02:56:15.847Z,0
2022-12-02T02:57:16.224Z,0
2022-12-02T02:58:17.414Z,0
2022-12-02T02:59:18.631Z,0
2022-12-02T03:00:19.657Z,0
2022-12-02T03:01:19.792Z,0
2022-12-02T03:02:20.244Z,0
2022-12-02T03:03:20.477Z,0
2022-12-02T03:04:20.372Z,0
2022-12-02T03:05:21.011Z,0
2022-12-02T03:06:22.230Z,0
2022-12-02T03:07:22.522Z,0
2022-12-02T03:08:23.126Z,0
2022-12-02T03:09:23.004Z,0
2022-12-02T03:10:23.982Z,0
2022-12-02T03:11:24.893Z,0
2022-12-02T03:12:25.820Z,0
2022-12-02T03:13:25.739Z,0
2022-12-02T03:14:31.662Z,0
2022-12-02T03:15:27.604Z,0
2022-12-02T03:16:28.135Z,0
2022-12-02T03:17:28.470Z,0
2022-12-02T03:18:28.757Z,0
2022-12-02T03:19:29.387Z,0
2022-12-02T03:20:30.677Z,0
2022-12-02T03:21:30.865Z,0
2022-12-02T03:22:31.790Z,0
2022-12-02T03:23:32.743Z,0
2022-12-02T03:24:32.614Z,0
2022-12-02T03:25:34.109Z,0
2022-12-02T03:26:34.631Z,0
2022-12-02T03:27:33.956Z,0
2022-12-02T03:28:34.577Z,0
2022-12-02T03:29:35.208Z,0
2022-12-02T03:30:36.304Z,0
2022-12-02T03:31:37.976Z,0
2022-12-02T03:32:37.897Z,0
2022-12-02T03:33:38.809Z,0
2022-12-02T03:34:39.715Z,0
2022-12-02T03:35:40.029Z,0
2022-12-02T03:36:42.235Z,0
2022-12-02T03:37:42.734Z,0
2022-12-02T03:38:42.985Z,0
2022-12-02T03:39:43.208Z,0
2022-12-02T03:40:43.478Z,0
2022-12-02T03:41:43.384Z,0
2022-12-02T03:42:44.571Z,0
2022-12-02T03:43:44.779Z,0
2022-12-02T03:44:45.285Z,0
2022-12-02T03:45:45.226Z,0
2022-12-02T03:46:45.513Z,0
2022-12-02T03:47:46.026Z,0
2022-12-02T03:48:45.931Z,0
2022-12-02T03:49:46.117Z,0
2022-12-02T03:50:47.186Z,0
2022-12-02T03:51:48.098Z,0
2022-12-02T03:52:48.448Z,0
2022-12-02T03:53:49.416Z,0
2022-12-02T03:54:54.822Z,0
2022-12-02T03:55:50.252Z,0
2022-12-02T03:56:50.152Z,0
2022-12-02T03:57:51.074Z,0
2022-12-02T03:58:51.706Z,0
2022-12-02T03:59:53.204Z,0
2022-12-02T04:00:53.964Z,0
2022-12-02T04:01:54.965Z,0
2022-12-02T04:02:55.985Z,0
2022-12-02T04:03:56.522Z,0
2022-12-02T04:04:56.416Z,0
2022-12-02T04:06:02.295Z,0
2022-12-02T04:06:57.502Z,0
2022-12-02T04:07:58.415Z,0
2022-12-02T04:08:58.715Z,0
2022-12-02T04:09:59.193Z,0
2022-12-02T04:10:59.217Z,0
2022-12-02T04:11:59.409Z,0
2022-12-02T04:13:00.019Z,0
2022-12-02T04:14:01.507Z,0
2022-12-02T04:15:02.260Z,0
2022-12-02T04:16:02.551Z,0
2022-12-02T04:17:05.272Z,0
2022-12-02T04:18:03.189Z,0
2022-12-02T04:19:03.097Z,0
2022-12-02T04:20:03.706Z,0
2022-12-02T04:21:04.774Z,0
2022-12-02T04:22:05.403Z,0
2022-12-02T04:23:06.592Z,0
2022-12-02T04:24:07.115Z,0
2022-12-02T04:25:07.109Z,0
2022-12-02T04:26:08.291Z,0
2022-12-02T04:27:08.906Z,0
2022-12-02T04:28:09.526Z,0
2022-12-02T04:29:10.652Z,0
2022-12-02T04:30:11.578Z,0
2022-12-02T04:31:13.027Z,0
2022-12-02T04:32:12.674Z,0
2022-12-02T04:33:13.023Z,0
2022-12-02T04:34:13.633Z,0
2022-12-02T04:35:14.546Z,0
2022-12-02T04:36:15.184Z,0
2022-12-02T04:37:16.684Z,0
2022-12-02T04:38:23.679Z,0
2022-12-02T04:39:17.362Z,0
2022-12-02T04:40:18.627Z,0
2022-12-02T04:41:19.647Z,0
2022-12-02T04:42:19.538Z,0
2022-12-02T04:43:20.739Z,0
2022-12-02T04:44:29.083Z,0
2022-12-02T04:45:22.004Z,0
2022-12-02T04:46:22.480Z,0
2022-12-02T04:47:22.142Z,0
2022-12-02T04:48:22.773Z,0
2022-12-02T04:49:23.101Z,0
2022-12-02T04:50:24.016Z,0
2022-12-02T04:51:25.311Z,0
2022-12-02T04:52:25.500Z,0
2022-12-02T04:53:26.723Z,0
2022-12-02T04:54:27.018Z,0
2022-12-02T04:55:27.512Z,0
2022-12-02T04:56:27.427Z,0
2022-12-02T04:57:34.776Z,0
2022-12-02T04:58:28.967Z,0
2022-12-02T04:59:28.581Z,0
2022-12-02T05:00:29.510Z,0
2022-12-02T05:01:30.803Z,0
2022-12-02T05:02:30.943Z,0
2022-12-02T05:03:31.542Z,0
2022-12-02T05:04:36.778Z,0
2022-12-02T05:05:32.809Z,0
2022-12-02T05:06:33.150Z,0
2022-12-02T05:07:34.249Z,0
2022-12-02T05:08:34.483Z,0
2022-12-02T05:09:35.783Z,0
2022-12-02T05:10:35.395Z,0
2022-12-02T05:11:41.584Z,0
2022-12-02T05:12:36.772Z,0
2022-12-02T05:13:36.970Z,0
2022-12-02T05:14:37.599Z,0
2022-12-02T05:15:38.534Z,0
2022-12-02T05:16:39.137Z,0
2022-12-02T05:17:45.975Z,0
2022-12-02T05:18:40.031Z,0
2022-12-02T05:19:40.592Z,0
2022-12-02T05:20:41.779Z,0
2022-12-02T05:21:41.777Z,0
2022-12-02T05:22:42.984Z,0
2022-12-02T05:23:43.958Z,0
2022-12-02T05:24:44.205Z,0
2022-12-02T05:25:44.116Z,0
2022-12-02T05:26:45.302Z,0
2022-12-02T05:27:51.441Z,0
2022-12-02T05:28:45.927Z,0
2022-12-02T05:29:46.322Z,0
2022-12-02T05:30:46.335Z,0
2022-12-02T05:31:47.409Z,0
2022-12-02T05:32:47.025Z,0
2022-12-02T05:33:47.917Z,0
2022-12-02T05:34:49.148Z,0
2022-12-02T05:35:49.185Z,0
2022-12-02T05:36:49.827Z,0
2022-12-02T05:37:50.769Z,0
2022-12-02T05:38:51.396Z,0
2022-12-02T05:39:52.348Z,0
2022-12-02T05:40:52.543Z,0
2022-12-02T05:41:53.113Z,0
2022-12-02T05:42:53.015Z,0
2022-12-02T05:43:54.200Z,0
2022-12-02T05:44:56.505Z,0
2022-12-02T05:45:54.827Z,0
2022-12-02T05:46:56.464Z,0
2022-12-02T05:47:56.141Z,0
2022-12-02T05:48:57.029Z,0
2022-12-02T05:49:58.216Z,0
2022-12-02T05:50:58.430Z,0
2022-12-02T05:52:08.284Z,0
2022-12-02T05:52:59.497Z,0
2022-12-02T05:54:00.001Z,0
2022-12-02T05:55:01.103Z,0
2022-12-02T05:56:00.019Z,0
2022-12-02T05:57:00.345Z,0
2022-12-02T05:58:01.534Z,0
2022-12-02T05:59:01.427Z,0
2022-12-02T06:00:02.039Z,0
2022-12-02T06:01:03.253Z,0
2022-12-02T06:02:04.533Z,0
2022-12-02T06:03:05.572Z,0
2022-12-02T06:04:06.109Z,0
2022-12-02T06:05:06.987Z,0
2022-12-02T06:06:07.179Z,0
2022-12-02T06:07:08.091Z,0
2022-12-02T06:08:08.969Z,0
2022-12-02T06:09:08.911Z,0
2022-12-02T06:10:08.872Z,0
2022-12-02T06:11:09.768Z,0
2022-12-02T06:12:10.744Z,0
2022-12-02T06:13:11.634Z,0
2022-12-02T06:14:12.836Z,0
2022-12-02T06:15:12.448Z,0
2022-12-02T06:16:13.657Z,0
2022-12-02T06:17:14.524Z,0
2022-12-02T06:18:14.428Z,0
2022-12-02T06:19:15.335Z,0
2022-12-02T06:20:14.953Z,0
2022-12-02T06:21:16.143Z,0
2022-12-02T06:22:16.574Z,0
2022-12-02T06:23:17.781Z,0
2022-12-02T06:24:17.982Z,0
2022-12-02T06:25:18.245Z,0
2022-12-02T06:26:18.146Z,0
2022-12-02T06:27:19.363Z,0
2022-12-02T06:28:26.465Z,0
2022-12-02T06:29:19.393Z,0
2022-12-02T06:30:20.105Z,0
2022-12-02T06:31:21.782Z,0
2022-12-02T06:32:22.532Z,0
2022-12-02T06:33:27.934Z,0
2022-12-02T06:34:23.147Z,0
2022-12-02T06:35:22.757Z,0
2022-12-02T06:36:22.808Z,0
2022-12-02T06:37:23.704Z,0
2022-12-02T06:38:24.607Z,0
2022-12-02T06:39:25.844Z,0
2022-12-02T06:40:56.246Z,0
2022-12-02T06:41:26.726Z,0
2022-12-02T06:42:27.171Z,0
2022-12-02T06:43:28.358Z,0
2022-12-02T06:44:28.268Z,0
2022-12-02T06:45:34.938Z,0
2022-12-02T06:46:30.315Z,0
2022-12-02T06:47:30.272Z,0
2022-12-02T06:48:30.765Z,0
2022-12-02T06:49:31.250Z,0
2022-12-02T06:50:31.738Z,0
2022-12-02T06:51:31.371Z,0
2022-12-02T06:52:32.082Z,0
2022-12-02T06:53:32.990Z,0
2022-12-02T06:54:34.481Z,0
2022-12-02T06:55:34.684Z,0
2022-12-02T06:56:34.327Z,0
2022-12-02T06:57:35.223Z,0
2022-12-02T06:58:36.146Z,0
2022-12-02T06:59:37.082Z,0
2022-12-02T07:00:37.426Z,0
2022-12-02T07:01:39.623Z,0
2022-12-02T07:02:39.918Z,0
2022-12-02T07:03:39.826Z,0
2022-12-02T07:04:41.029Z,0
2022-12-02T07:05:40.645Z,0
2022-12-02T07:06:41.866Z,0
2022-12-02T07:07:42.567Z,0
2022-12-02T07:08:42.802Z,0
2022-12-02T07:09:43.003Z,0
2022-12-02T07:10:42.924Z,0
2022-12-02T07:11:43.855Z,0
2022-12-02T07:12:44.855Z,0
2022-12-02T07:13:46.049Z,0
2022-12-02T07:14:46.390Z,0
2022-12-02T07:15:47.580Z,0
2022-12-02T07:16:48.831Z,0
2022-12-02T07:17:49.053Z,0
2022-12-02T07:18:50.259Z,0
2022-12-02T07:19:50.167Z,0
2022-12-02T07:20:51.089Z,0
2022-12-02T07:21:58.692Z,0
2022-12-02T07:22:52.969Z,0
2022-12-02T07:23:53.156Z,0
2022-12-02T07:24:53.464Z,0
2022-12-02T07:25:53.835Z,0
2022-12-02T07:26:54.501Z,0
2022-12-02T07:27:55.984Z,0
2022-12-02T07:29:06.886Z,0
2022-12-02T07:29:56.190Z,0
2022-12-02T07:30:57.685Z,0
2022-12-02T07:31:57.930Z,5.63
2022-12-02T07:32:58.215Z,5.63
2022-12-02T07:33:58.138Z,5.63
2022-12-02T07:34:59.853Z,5.63
2022-12-02T07:35:59.486Z,5.63
2022-12-02T07:37:00.981Z,5.63
2022-12-02T07:38:00.890Z,5.63
2022-12-02T07:39:31.077Z,5.63
2022-12-02T07:40:01.752Z,5.63
2022-12-02T07:41:02.725Z,5.63
2022-12-02T07:42:02.949Z,5.63
2022-12-02T07:43:03.531Z,5.63
2022-12-02T07:44:03.742Z,5.63
2022-12-02T07:45:05.185Z,5.63
2022-12-02T07:46:05.225Z,5.63
2022-12-02T07:47:06.442Z,5.63
2022-12-02T07:48:07.093Z,5.63
2022-12-02T07:49:12.974Z,5.63
2022-12-02T07:50:07.898Z,5.63
2022-12-02T07:51:09.380Z,5.63
2022-12-02T07:52:08.709Z,5.63
2022-12-02T07:53:09.444Z,5.63
2022-12-02T07:54:10.374Z,5.63
2022-12-02T07:55:11.136Z,5.63
2022-12-02T07:56:11.383Z,5.63
2022-12-02T07:57:11.602Z,5.63
2022-12-02T07:58:11.792Z,5.63
2022-12-02T07:59:28.552Z,5.63
2022-12-02T08:00:13.455Z,5.63
2022-12-02T08:01:19.561Z,5.63
2022-12-02T08:02:15.299Z,5.63
2022-12-02T08:03:15.316Z,5.63
2022-12-02T08:04:15.048Z,5.63
2022-12-02T08:05:16.441Z,5.63
2022-12-02T08:06:16.568Z,5.63
2022-12-02T08:07:16.623Z,5.63
2022-12-02T08:08:18.087Z,5.63
2022-12-02T08:09:18.641Z,5.63
2022-12-02T08:10:18.583Z,5.63
2022-12-02T08:11:20.081Z,5.63
2022-12-02T08:12:20.029Z,5.63
2022-12-02T08:13:20.731Z,5.63
2022-12-02T08:14:21.360Z,5.63
2022-12-02T08:15:22.268Z,5.63
2022-12-02T08:16:23.530Z,5.63
2022-12-02T08:17:24.981Z,5.63
2022-12-02T08:18:24.911Z,11.25
2022-12-02T08:19:25.805Z,11.25
2022-12-02T08:20:26.993Z,11.25
2022-12-02T08:21:26.726Z,11.25
2022-12-02T08:22:27.125Z,11.25
2022-12-02T08:23:28.135Z,11.25
2022-12-02T08:24:28.787Z,11.25
2022-12-02T08:25:29.995Z,11.25
2022-12-02T08:26:30.207Z,11.25
2022-12-02T08:27:31.172Z,11.25
2022-12-02T08:28:31.349Z,11.25
2022-12-02T08:29:31.251Z,11.25
2022-12-02T08:30:32.459Z,11.25
2022-12-02T08:31:33.541Z,11.25
2022-12-02T08:32:33.749Z,5.63
2022-12-02T08:33:34.017Z,5.63
2022-12-02T08:34:35.225Z,5.63
2022-12-02T08:35:35.143Z,5.63
2022-12-02T08:36:35.479Z,5.63
2022-12-02T08:37:36.366Z,5.63
2022-12-02T08:38:37.568Z,5.63
2022-12-02T08:39:37.492Z,5.63
2022-12-02T08:40:38.387Z,5.63
2022-12-02T08:41:39.598Z,5.63
2022-12-02T08:42:39.518Z,5.63
2022-12-02T08:43:39.696Z,5.63
2022-12-02T08:44:40.612Z,5.63
2022-12-02T08:45:40.229Z,5.63
2022-12-02T08:46:41.856Z,5.63
2022-12-02T08:47:41.778Z,5.63
2022-12-02T08:48:43.293Z,5.63
2022-12-02T08:49:43.504Z,5.63
2022-12-02T08:50:44.752Z,5.63
2022-12-02T08:51:44.952Z,5.63
2022-12-02T08:52:44.866Z,5.63
2022-12-02T08:53:45.611Z,5.63
2022-12-02T08:54:46.140Z,5.63
2022-12-02T08:55:46.646Z,5.63
2022-12-02T08:56:47.151Z,5.63
2022-12-02T08:57:47.674Z,5.63
2022-12-02T08:58:47.877Z,5.63
2022-12-02T08:59:48.849Z,5.63
2022-12-02T09:00:55.151Z,5.63
2022-12-02T09:01:49.885Z,5.63
2022-12-02T09:02:50.527Z,5.63
2022-12-02T09:03:51.152Z,5.63
2022-12-02T09:04:52.192Z,5.63
2022-12-02T09:05:52.329Z,5.63
2022-12-02T09:06:53.370Z,5.63
2022-12-02T09:07:54.239Z,5.63
2022-12-02T09:08:54.289Z,5.63
2022-12-02T09:09:55.805Z,5.63
2022-12-02T09:10:55.980Z,5.63
2022-12-02T09:11:55.994Z,5.63
2022-12-02T09:12:56.510Z,5.63
2022-12-02T09:13:56.861Z,5.63
2022-12-02T09:14:57.303Z,5.63
2022-12-02T09:15:57.133Z,5.63
2022-12-02T09:16:58.277Z,5.63
2022-12-02T09:17:59.507Z,5.63
2022-12-02T09:19:00.016Z,11.25
2022-12-02T09:19:59.665Z,11.25
2022-12-02T09:21:00.884Z,11.25
2022-12-02T09:22:02.196Z,11.25
2022-12-02T09:23:02.120Z,11.25
2022-12-02T09:24:07.290Z,11.25
2022-12-02T09:25:03.993Z,11.25
2022-12-02T09:26:03.348Z,11.25
2022-12-02T09:27:03.996Z,11.25
2022-12-02T09:28:06.360Z,11.25
2022-12-02T09:29:05.562Z,11.25
2022-12-02T09:30:05.546Z,11.25
2022-12-02T09:31:07.197Z,11.25
2022-12-02T09:32:07.979Z,11.25
2022-12-02T09:33:08.481Z,11.25
2022-12-02T09:34:08.506Z,11.25
2022-12-02T09:35:10.242Z,11.25
2022-12-02T09:36:10.714Z,11.25
2022-12-02T09:37:11.151Z,11.25
2022-12-02T09:38:12.274Z,11.25
2022-12-02T09:39:12.715Z,11.25
2022-12-02T09:40:13.066Z,11.25
2022-12-02T09:41:14.308Z,11.25
2022-12-02T09:42:14.815Z,11.25
2022-12-02T09:43:14.823Z,11.25
2022-12-02T09:44:15.181Z,11.25
2022-12-02T09:45:16.122Z,11.25
2022-12-02T09:46:21.089Z,11.25
2022-12-02T09:47:16.925Z,11.25
2022-12-02T09:48:17.599Z,11.25
2022-12-02T09:49:18.838Z,11.25
2022-12-02T09:50:19.352Z,11.25
2022-12-02T09:51:19.245Z,11.25
2022-12-02T09:52:25.437Z,11.25
2022-12-02T09:53:20.686Z,11.25
2022-12-02T09:54:21.752Z,11.25
2022-12-02T09:55:22.693Z,11.25
2022-12-02T09:56:24.015Z,11.25
2022-12-02T09:57:23.226Z,11.25
2022-12-02T09:58:23.178Z,11.25
2022-12-02T09:59:24.381Z,11.25
2022-12-02T10:00:24.565Z,11.25
2022-12-02T10:01:24.636Z,11.25
2022-12-02T10:02:25.540Z,11.25
2022-12-02T10:03:32.615Z,11.25
2022-12-02T10:04:25.940Z,11.25
2022-12-02T10:05:26.561Z,11.25
2022-12-02T10:06:27.782Z,11.25
2022-12-02T10:07:28.111Z,11.25
2022-12-02T10:08:28.264Z,11.25
2022-12-02T10:09:29.473Z,11.25
2022-12-02T10:10:29.916Z,11.25
2022-12-02T10:11:29.853Z,11.25
2022-12-02T10:12:30.061Z,11.25
2022-12-02T10:13:30.561Z,11.25
2022-12-02T10:14:30.503Z,11.25
2022-12-02T10:15:30.865Z,11.25
2022-12-02T10:16:31.793Z,11.25
2022-12-02T10:17:32.742Z,11.25
2022-12-02T10:18:33.235Z,16.88
2022-12-02T10:19:33.868Z,16.88
2022-12-02T10:20:33.809Z,16.88
2022-12-02T10:21:34.743Z,16.88
2022-12-02T10:22:34.827Z,16.88
2022-12-02T10:23:39.607Z,16.88
2022-12-02T10:24:36.382Z,16.88
2022-12-02T10:25:37.584Z,16.88
2022-12-02T10:26:37.637Z,16.88
2022-12-02T10:27:38.882Z,16.88
2022-12-02T10:28:38.853Z,16.88
2022-12-02T10:29:39.556Z,16.88
2022-12-02T10:30:40.475Z,16.88
2022-12-02T10:31:41.095Z,16.88
2022-12-02T10:32:41.366Z,16.88
2022-12-02T10:33:41.854Z,16.88
2022-12-02T10:34:42.197Z,16.88
2022-12-02T10:35:43.110Z,16.88
2022-12-02T10:36:43.009Z,16.88
2022-12-02T10:37:44.101Z,16.88
2022-12-02T10:38:44.298Z,16.88
2022-12-02T10:39:52.205Z,16.88
2022-12-02T10:40:45.691Z,16.88
2022-12-02T10:41:46.189Z,16.88
2022-12-02T10:42:46.125Z,16.88
2022-12-02T10:43:46.040Z,16.88
2022-12-02T10:44:47.108Z,16.88
2022-12-02T10:45:48.378Z,16.88
2022-12-02T10:46:48.857Z,16.88
2022-12-02T10:47:48.817Z,16.88
2022-12-02T10:48:50.035Z,16.88
2022-12-02T10:49:49.679Z,16.88
2022-12-02T10:50:51.175Z,16.88
2022-12-02T10:51:50.776Z,16.88
2022-12-02T10:52:55.502Z,16.88
2022-12-02T10:53:51.842Z,16.88
2022-12-02T10:54:59.436Z,16.88
2022-12-02T10:55:54.211Z,16.88
2022-12-02T10:56:54.143Z,16.88
2022-12-02T10:57:54.659Z,16.88
2022-12-02T10:58:54.883Z,16.88
2022-12-02T10:59:54.772Z,16.88
2022-12-02T11:01:00.391Z,16.88
2022-12-02T11:01:57.064Z,16.88
2022-12-02T11:02:57.427Z,16.88
2022-12-02T11:03:58.645Z,16.88
2022-12-02T11:04:59.278Z,16.88
2022-12-02T11:05:59.238Z,16.88
2022-12-02T11:06:59.726Z,16.88
2022-12-02T11:08:00.139Z,16.88
2022-12-02T11:09:41.986Z,22.5
2022-12-02T11:10:00.612Z,22.5
2022-12-02T11:11:02.097Z,22.5
2022-12-02T11:12:02.302Z,22.5
2022-12-02T11:13:03.255Z,22.5
2022-12-02T11:14:04.624Z,22.5
2022-12-02T11:15:04.294Z,22.5
2022-12-02T11:16:04.935Z,22.5
2022-12-02T11:17:11.157Z,22.5
2022-12-02T11:18:06.144Z,22.5
2022-12-02T11:19:06.041Z,22.5
2022-12-02T11:20:06.981Z,22.5
2022-12-02T11:21:08.470Z,22.5
2022-12-02T11:22:12.285Z,22.5
2022-12-02T11:23:09.879Z,22.5
2022-12-02T11:24:09.798Z,22.5
2022-12-02T11:25:11.295Z,22.5
2022-12-02T11:26:11.612Z,22.5
2022-12-02T11:27:16.680Z,28.13
2022-12-02T11:28:11.866Z,28.13
2022-12-02T11:29:13.110Z,28.13
2022-12-02T11:30:13.074Z,28.13
2022-12-02T11:31:14.083Z,28.13
2022-12-02T11:32:14.601Z,28.13
2022-12-02T11:33:14.709Z,33.75
2022-12-02T11:34:21.913Z,33.75
2022-12-02T11:35:40.216Z,33.75
2022-12-02T11:36:40.444Z,39.38
2022-12-02T11:37:40.679Z,39.38
2022-12-02T11:38:41.671Z,39.38
2022-12-02T11:39:43.166Z,39.38
2022-12-02T11:40:43.666Z,39.38
2022-12-02T11:41:43.879Z,39.38
2022-12-02T11:42:43.805Z,39.38
2022-12-02T11:43:45.028Z,39.38
2022-12-02T11:44:45.411Z,39.38
2022-12-02T11:45:47.008Z,39.38
2022-12-02T11:46:47.255Z,39.38
2022-12-02T11:47:48.361Z,39.38
2022-12-02T11:48:48.568Z,33.75
2022-12-02T11:49:49.276Z,39.38
2022-12-02T11:50:50.509Z,39.38
2022-12-02T11:51:51.773Z,39.38
2022-12-02T11:52:51.698Z,45
2022-12-02T11:53:52.636Z,50.63
2022-12-02T11:54:53.789Z,45
2022-12-02T11:55:53.174Z,50.63
2022-12-02T11:56:53.849Z,45
2022-12-02T11:57:55.073Z,56.25
2022-12-02T11:58:56.047Z,50.63
2022-12-02T11:59:56.262Z,50.63
2022-12-02T12:00:56.747Z,50.63
2022-12-02T12:01:57.193Z,50.63
2022-12-02T12:02:57.429Z,50.63
2022-12-02T12:03:57.317Z,56.25
2022-12-02T12:04:58.245Z,61.88
2022-12-02T12:05:59.607Z,50.63
2022-12-02T12:06:59.799Z,50.63
2022-12-02T12:08:08.086Z,50.63
2022-12-02T12:09:00.619Z,50.63
2022-12-02T12:10:00.813Z,50.63
2022-12-02T12:11:00.729Z,50.63
2022-12-02T12:12:01.643Z,50.63
2022-12-02T12:13:01.576Z,50.63
2022-12-02T12:14:02.779Z,45
2022-12-02T12:15:03.424Z,45
2022-12-02T12:16:03.171Z,45
2022-12-02T12:17:04.790Z,39.38
2022-12-02T12:18:05.356Z,39.38
2022-12-02T12:19:09.830Z,39.38
2022-12-02T12:20:05.443Z,39.38
2022-12-02T12:21:07.014Z,39.38
2022-12-02T12:22:07.493Z,33.75
2022-12-02T12:23:07.728Z,33.75
2022-12-02T12:24:08.486Z,33.75
2022-12-02T12:25:10.330Z,28.13
2022-12-02T12:26:09.040Z,28.13
2022-12-02T12:27:09.949Z,28.13
2022-12-02T12:28:10.893Z,28.13
2022-12-02T12:29:10.543Z,28.13
2022-12-02T12:30:11.621Z,28.13
2022-12-02T12:31:12.009Z,22.5
2022-12-02T12:32:12.001Z,22.5
2022-12-02T12:33:12.210Z,22.5
2022-12-02T12:34:12.896Z,22.5
2022-12-02T12:35:13.801Z,22.5
2022-12-02T12:36:14.870Z,22.5
2022-12-02T12:37:14.765Z,22.5
2022-12-02T12:38:15.961Z,22.5
2022-12-02T12:39:16.169Z,22.5
2022-12-02T12:40:16.487Z,22.5
2022-12-02T12:41:31.204Z,16.88
2022-12-02T12:42:18.609Z,16.88
2022-12-02T12:43:18.113Z,22.5
2022-12-02T12:44:18.060Z,22.5
2022-12-02T12:45:18.776Z,22.5
2022-12-02T12:46:19.340Z,22.5
2022-12-02T12:47:22.376Z,22.5
2022-12-02T12:48:20.463Z,22.5
2022-12-02T12:49:21.625Z,22.5
2022-12-02T12:50:25.804Z,22.5
2022-12-02T12:51:22.727Z,22.5
2022-12-02T12:52:22.927Z,22.5
2022-12-02T12:53:23.121Z,22.5
2022-12-02T12:54:23.745Z,22.5
2022-12-02T12:55:24.935Z,22.5
2022-12-02T12:56:26.337Z,22.5
2022-12-02T12:57:26.839Z,22.5
2022-12-02T12:58:27.083Z,22.5
2022-12-02T12:59:26.724Z,22.5
2022-12-02T13:00:28.241Z,16.88
2022-12-02T13:01:36.385Z,16.88
2022-12-02T13:02:29.329Z,16.88
2022-12-02T13:03:28.844Z,16.88
2022-12-02T13:04:30.076Z,16.88
2022-12-02T13:05:30.273Z,22.5
2022-12-02T13:06:30.873Z,22.5
2022-12-02T13:07:31.149Z,22.5
2022-12-02T13:08:30.756Z,28.13
2022-12-02T13:09:32.246Z,33.75
2022-12-02T13:10:32.170Z,33.75
2022-12-02T13:11:33.369Z,33.75
2022-12-02T13:12:34.283Z,33.75
2022-12-02T13:13:34.566Z,39.38
2022-12-02T13:14:34.488Z,39.38
2022-12-02T13:15:35.428Z,39.38
2022-12-02T13:16:36.525Z,45
2022-12-02T13:17:36.768Z,45
2022-12-02T13:18:37.062Z,45
2022-12-02T13:19:37.255Z,45
2022-12-02T13:20:37.461Z,45
2022-12-02T13:21:37.391Z,45
2022-12-02T13:22:38.030Z,39.38
2022-12-02T13:23:39.232Z,39.38
2022-12-02T13:24:46.530Z,39.38
2022-12-02T13:25:40.728Z,39.38
2022-12-02T13:26:41.246Z,33.75
2022-12-02T13:27:41.454Z,33.75
2022-12-02T13:28:42.380Z,33.75
2022-12-02T13:29:42.583Z,33.75
2022-12-02T13:30:47.674Z,33.75
2022-12-02T13:31:43.391Z,33.75
2022-12-02T13:32:43.647Z,28.13
2022-12-02T13:33:43.574Z,28.13
2022-12-02T13:34:44.166Z,28.13
2022-12-02T13:35:44.647Z,22.5
2022-12-02T13:36:44.967Z,22.5
2022-12-02T13:37:45.458Z,22.5
2022-12-02T13:38:45.395Z,22.5
2022-12-02T13:39:46.321Z,16.88
2022-12-02T13:40:51.897Z,16.88
2022-12-02T13:41:47.693Z,16.88
2022-12-02T13:42:47.880Z,16.88
2022-12-02T13:43:48.114Z,16.88
2022-12-02T13:44:49.530Z,16.88
2022-12-02T13:45:49.359Z,16.88
2022-12-02T13:46:50.943Z,16.88
2022-12-02T13:47:51.189Z,16.88
2022-12-02T13:48:51.093Z,11.25
2022-12-02T13:49:52.436Z,11.25
2022-12-02T13:50:52.831Z,11.25
2022-12-02T13:51:53.891Z,11.25
2022-12-02T13:52:53.804Z,11.25
2022-12-02T13:53:59.207Z,11.25
2022-12-02T13:54:56.261Z,11.25
2022-12-02T13:55:56.466Z,11.25
2022-12-02T13:56:56.771Z,11.25
2022-12-02T13:57:56.362Z,11.25
2022-12-02T13:58:57.362Z,11.25
2022-12-02T13:59:58.875Z,11.25
2022-12-02T14:00:59.061Z,11.25
2022-12-02T14:02:00.697Z,11.25
2022-12-02T14:03:01.217Z,11.25
2022-12-02T14:04:02.252Z,11.25
2022-12-02T14:05:09.469Z,11.25